sensor_id;sensor_type;location;lat;lon;timestamp;pressure;altitude;pressure_sealevel;temperature;humidity
70900;BME280;67902;52.154;5.430;2023-04-28T00:02:01;101500.19;;;9.78;53.18
70900;BME280;67902;52.154;5.430;2023-04-28T00:04:27;101502.91;;;9.78;52.94
70900;BME280;67902;52.154;5.430;2023-04-28T00:06:54;101507.28;;;9.79;52.82
70900;BME280;67902;52.154;5.430;2023-04-28T00:09:21;101513.97;;;9.76;53.75
70900;BME280;67902;52.154;5.430;2023-04-28T00:11:47;101499.31;;;9.84;53.91
70900;BME280;67902;52.154;5.430;2023-04-28T00:14:13;101500.97;;;9.85;53.13
70900;BME280;67902;52.154;5.430;2023-04-28T00:16:40;101485.19;;;9.82;53.96
70900;BME280;67902;52.154;5.430;2023-04-28T00:19:07;101493.53;;;9.80;53.76
70900;BME280;67902;52.154;5.430;2023-04-28T00:21:33;101482.09;;;9.78;53.67
70900;BME280;67902;52.154;5.430;2023-04-28T00:24:00;101471.97;;;9.74;53.53
70900;BME280;67902;52.154;5.430;2023-04-28T00:26:26;101457.81;;;9.72;53.40
70900;BME280;67902;52.154;5.430;2023-04-28T00:28:52;101465.72;;;9.73;54.21
70900;BME280;67902;52.154;5.430;2023-04-28T00:31:19;101463.22;;;9.72;54.18
70900;BME280;67902;52.154;5.430;2023-04-28T00:33:45;101460.97;;;9.69;53.65
70900;BME280;67902;52.154;5.430;2023-04-28T00:36:12;101453.25;;;9.72;52.95
70900;BME280;67902;52.154;5.430;2023-04-28T00:38:38;101439.34;;;9.69;54.17
70900;BME280;67902;52.154;5.430;2023-04-28T00:41:04;101445.81;;;9.68;54.17
70900;BME280;67902;52.154;5.430;2023-04-28T00:43:42;101437.06;;;9.66;54.06
70900;BME280;67902;52.154;5.430;2023-04-28T00:46:19;101442.13;;;9.62;54.38
70900;BME280;67902;52.154;5.430;2023-04-28T00:48:48;101440.00;;;9.64;53.95
70900;BME280;67902;52.154;5.430;2023-04-28T00:51:14;101444.53;;;9.70;53.59
70900;BME280;67902;52.154;5.430;2023-04-28T00:53:42;101446.13;;;9.78;54.36
70900;BME280;67902;52.154;5.430;2023-04-28T00:56:09;101442.38;;;9.79;54.28
70900;BME280;67902;52.154;5.430;2023-04-28T00:58:36;101432.44;;;9.73;54.93
70900;BME280;67902;52.154;5.430;2023-04-28T01:01:06;101439.34;;;9.69;54.31
70900;BME280;67902;52.154;5.430;2023-04-28T01:03:35;101438.75;;;9.67;55.22
70900;BME280;67902;52.154;5.430;2023-04-28T01:06:04;101430.19;;;9.70;55.25
70900;BME280;67902;52.154;5.430;2023-04-28T01:08:32;101421.84;;;9.71;55.88
70900;BME280;67902;52.154;5.430;2023-04-28T01:10:59;101421.25;;;9.69;56.46
70900;BME280;67902;52.154;5.430;2023-04-28T01:13:25;101416.06;;;9.68;56.07
70900;BME280;67902;52.154;5.430;2023-04-28T01:15:51;101424.19;;;9.68;56.73
70900;BME280;67902;52.154;5.430;2023-04-28T01:18:18;101418.69;;;9.74;56.29
70900;BME280;67902;52.154;5.430;2023-04-28T01:20:45;101423.94;;;9.69;55.70
70900;BME280;67902;52.154;5.430;2023-04-28T01:23:12;101422.50;;;9.67;56.95
70900;BME280;67902;52.154;5.430;2023-04-28T01:25:39;101416.72;;;9.63;57.02
70900;BME280;67902;52.154;5.430;2023-04-28T01:28:06;101406.59;;;9.59;56.35
70900;BME280;67902;52.154;5.430;2023-04-28T01:30:32;101412.88;;;9.53;57.63
70900;BME280;67902;52.154;5.430;2023-04-28T01:33:01;101402.31;;;9.51;58.61
70900;BME280;67902;52.154;5.430;2023-04-28T01:35:27;101409.13;;;9.54;60.07
70900;BME280;67902;52.154;5.430;2023-04-28T01:37:54;101398.09;;;9.55;58.59
70900;BME280;67902;52.154;5.430;2023-04-28T01:40:20;101403.09;;;9.52;57.31
70900;BME280;67902;52.154;5.430;2023-04-28T01:42:47;101391.69;;;9.50;57.77
70900;BME280;67902;52.154;5.430;2023-04-28T01:45:13;101385.69;;;9.48;58.98
70900;BME280;67902;52.154;5.430;2023-04-28T01:47:39;101384.88;;;9.47;57.79
70900;BME280;67902;52.154;5.430;2023-04-28T01:50:06;101379.25;;;9.49;57.08
70900;BME280;67902;52.154;5.430;2023-04-28T01:52:33;101377.13;;;9.51;56.88
70900;BME280;67902;52.154;5.430;2023-04-28T01:54:59;101368.25;;;9.44;56.45
70900;BME280;67902;52.154;5.430;2023-04-28T01:57:25;101371.41;;;9.41;57.33
70900;BME280;67902;52.154;5.430;2023-04-28T01:59:54;101369.91;;;9.45;57.89
70900;BME280;67902;52.154;5.430;2023-04-28T02:02:21;101371.19;;;9.42;57.30
70900;BME280;67902;52.154;5.430;2023-04-28T02:04:47;101367.50;;;9.37;57.37
70900;BME280;67902;52.154;5.430;2023-04-28T02:07:13;101366.69;;;9.36;58.16
70900;BME280;67902;52.154;5.430;2023-04-28T02:09:40;101367.97;;;9.33;57.85
70900;BME280;67902;52.154;5.430;2023-04-28T02:12:06;101358.41;;;9.31;57.50
70900;BME280;67902;52.154;5.430;2023-04-28T02:14:33;101361.97;;;9.31;58.84
70900;BME280;67902;52.154;5.430;2023-04-28T02:16:59;101364.66;;;9.31;58.38
70900;BME280;67902;52.154;5.430;2023-04-28T02:19:28;101363.44;;;9.27;57.09
70900;BME280;67902;52.154;5.430;2023-04-28T02:21:54;101354.28;;;9.28;58.47
70900;BME280;67902;52.154;5.430;2023-04-28T02:24:21;101355.13;;;9.29;58.41
70900;BME280;67902;52.154;5.430;2023-04-28T02:26:47;101349.47;;;9.30;59.40
70900;BME280;67902;52.154;5.430;2023-04-28T02:29:14;101341.63;;;9.29;58.98
70900;BME280;67902;52.154;5.430;2023-04-28T02:31:40;101337.69;;;9.25;57.98
70900;BME280;67902;52.154;5.430;2023-04-28T02:34:07;101330.03;;;9.22;58.41
70900;BME280;67902;52.154;5.430;2023-04-28T02:36:33;101329.88;;;9.17;58.03
70900;BME280;67902;52.154;5.430;2023-04-28T02:38:59;101330.91;;;9.16;58.64
70900;BME280;67902;52.154;5.430;2023-04-28T02:41:26;101318.69;;;9.13;58.62
70900;BME280;67902;52.154;5.430;2023-04-28T02:43:53;101322.38;;;9.19;59.96
70900;BME280;67902;52.154;5.430;2023-04-28T02:46:20;101325.31;;;9.17;58.34
70900;BME280;67902;52.154;5.430;2023-04-28T02:48:46;101319.28;;;9.15;59.03
70900;BME280;67902;52.154;5.430;2023-04-28T02:51:12;101316.56;;;9.15;58.39
70900;BME280;67902;52.154;5.430;2023-04-28T02:53:39;101311.41;;;9.14;59.14
70900;BME280;67902;52.154;5.430;2023-04-28T02:56:06;101308.03;;;9.18;58.52
70900;BME280;67902;52.154;5.430;2023-04-28T02:58:32;101305.16;;;9.13;58.54
70900;BME280;67902;52.154;5.430;2023-04-28T03:00:59;101294.59;;;9.12;59.26
70900;BME280;67902;52.154;5.430;2023-04-28T03:03:25;101287.16;;;9.07;59.07
70900;BME280;67902;52.154;5.430;2023-04-28T03:05:52;101277.22;;;9.01;59.11
70900;BME280;67902;52.154;5.430;2023-04-28T03:08:18;101273.94;;;8.99;58.08
70900;BME280;67902;52.154;5.430;2023-04-28T03:10:46;101273.94;;;8.99;59.32
70900;BME280;67902;52.154;5.430;2023-04-28T03:13:12;101275.59;;;9.00;59.00
70900;BME280;67902;52.154;5.430;2023-04-28T03:15:38;101273.94;;;8.99;58.94
70900;BME280;67902;52.154;5.430;2023-04-28T03:18:05;101272.28;;;8.98;58.91
70900;BME280;67902;52.154;5.430;2023-04-28T03:20:31;101267.69;;;8.99;59.00
70900;BME280;67902;52.154;5.430;2023-04-28T03:22:58;101271.47;;;8.98;58.83
70900;BME280;67902;52.154;5.430;2023-04-28T03:25:24;101270.63;;;8.97;59.77
70900;BME280;67902;52.154;5.430;2023-04-28T03:27:51;101264.16;;;8.98;60.12
70900;BME280;67902;52.154;5.430;2023-04-28T03:30:17;101261.13;;;8.95;60.00
70900;BME280;67902;52.154;5.430;2023-04-28T03:32:43;101261.69;;;8.97;59.70
70900;BME280;67902;52.154;5.430;2023-04-28T03:35:10;101255.72;;;8.95;59.53
70900;BME280;67902;52.154;5.430;2023-04-28T03:37:36;101249.03;;;8.97;59.77
70900;BME280;67902;52.154;5.430;2023-04-28T03:40:03;101243.63;;;8.97;61.57
70900;BME280;67902;52.154;5.430;2023-04-28T03:42:30;101231.16;;;8.96;60.75
70900;BME280;67902;52.154;5.430;2023-04-28T03:44:56;101228.91;;;8.93;60.28
70900;BME280;67902;52.154;5.430;2023-04-28T03:47:22;101220.22;;;8.91;61.71
70900;BME280;67902;52.154;5.430;2023-04-28T03:49:49;101224.78;;;8.91;61.07
70900;BME280;67902;52.154;5.430;2023-04-28T03:52:15;101232.81;;;8.97;60.64
70900;BME280;67902;52.154;5.430;2023-04-28T03:54:42;101230.13;;;8.97;60.56
70900;BME280;67902;52.154;5.430;2023-04-28T03:57:08;101229.44;;;9.02;61.44
70900;BME280;67902;52.154;5.430;2023-04-28T03:59:34;101228.78;;;9.06;60.51
70900;BME280;67902;52.154;5.430;2023-04-28T04:02:01;101220.81;;;9.11;60.12
70900;BME280;67902;52.154;5.430;2023-04-28T04:04:27;101219.41;;;9.09;60.09
70900;BME280;67902;52.154;5.430;2023-04-28T04:06:54;101217.97;;;9.06;59.79
70900;BME280;67902;52.154;5.430;2023-04-28T04:09:21;101216.31;;;9.05;59.79
70900;BME280;67902;52.154;5.430;2023-04-28T04:11:47;101218.19;;;9.05;60.34
70900;BME280;67902;52.154;5.430;2023-04-28T04:14:13;101211.59;;;9.01;60.64
70900;BME280;67902;52.154;5.430;2023-04-28T04:16:40;101204.41;;;8.95;60.63
70900;BME280;67902;52.154;5.430;2023-04-28T04:19:07;101205.44;;;8.94;60.64
70900;BME280;67902;52.154;5.430;2023-04-28T04:21:33;101200.41;;;8.97;61.51
70900;BME280;67902;52.154;5.430;2023-04-28T04:23:59;101192.06;;;8.99;60.18
70900;BME280;67902;52.154;5.430;2023-04-28T04:26:26;101189.63;;;8.97;60.87
70900;BME280;67902;52.154;5.430;2023-04-28T04:28:52;101196.19;;;9.01;60.75
70900;BME280;67902;52.154;5.430;2023-04-28T04:31:19;101195.84;;;8.98;61.87
70900;BME280;67902;52.154;5.430;2023-04-28T04:33:45;101196.81;;;9.03;61.20
70900;BME280;67902;52.154;5.430;2023-04-28T04:36:12;101200.13;;;9.05;61.29
70900;BME280;67902;52.154;5.430;2023-04-28T04:38:39;101190.97;;;9.06;60.87
70900;BME280;67902;52.154;5.430;2023-04-28T04:41:05;101180.75;;;9.08;61.51
70900;BME280;67902;52.154;5.430;2023-04-28T04:43:32;101175.13;;;9.10;61.31
70900;BME280;67902;52.154;5.430;2023-04-28T04:45:58;101168.66;;;9.11;60.51
70900;BME280;67902;52.154;5.430;2023-04-28T04:48:25;101170.69;;;9.15;60.91
70900;BME280;67902;52.154;5.430;2023-04-28T04:50:51;101166.94;;;9.16;61.01
70900;BME280;67902;52.154;5.430;2023-04-28T04:53:18;101166.09;;;9.16;61.33
70900;BME280;67902;52.154;5.430;2023-04-28T04:55:44;101171.06;;;9.19;61.80
70900;BME280;67902;52.154;5.430;2023-04-28T04:58:10;101171.91;;;9.19;61.23
70900;BME280;67902;52.154;5.430;2023-04-28T05:00:37;101170.22;;;9.18;61.83
70900;BME280;67902;52.154;5.430;2023-04-28T05:03:04;101163.84;;;9.13;62.05
70900;BME280;67902;52.154;5.430;2023-04-28T05:05:31;101157.63;;;9.12;62.74
70900;BME280;67902;52.154;5.430;2023-04-28T05:07:58;101160.31;;;9.12;61.56
70900;BME280;67902;52.154;5.430;2023-04-28T05:10:24;101155.09;;;9.17;62.46
70900;BME280;67902;52.154;5.430;2023-04-28T05:12:51;101164.00;;;9.18;62.88
70900;BME280;67902;52.154;5.430;2023-04-28T05:15:17;101169.78;;;9.21;62.47
70900;BME280;67902;52.154;5.430;2023-04-28T05:17:43;101166.50;;;9.19;62.76
70900;BME280;67902;52.154;5.430;2023-04-28T05:20:10;101171.44;;;9.22;64.67
70900;BME280;67902;52.154;5.430;2023-04-28T05:22:38;101163.91;;;9.24;63.41
70900;BME280;67902;52.154;5.430;2023-04-28T05:25:05;101160.19;;;9.25;63.12
70900;BME280;67902;52.154;5.430;2023-04-28T05:27:31;101166.03;;;9.22;65.59
70900;BME280;67902;52.154;5.430;2023-04-28T05:29:58;101160.78;;;9.27;65.81
70900;BME280;67902;52.154;5.430;2023-04-28T05:32:25;101170.09;;;9.31;65.71
70900;BME280;67902;52.154;5.430;2023-04-28T05:34:51;101167.38;;;9.31;67.07
70900;BME280;67902;52.154;5.430;2023-04-28T05:37:18;101162.56;;;9.33;65.68
70900;BME280;67902;52.154;5.430;2023-04-28T05:39:44;101174.09;;;9.41;65.25
70900;BME280;67902;52.154;5.430;2023-04-28T05:42:11;101170.94;;;9.44;64.35
70900;BME280;67902;52.154;5.430;2023-04-28T05:44:37;101172.16;;;9.48;68.25
70900;BME280;67902;52.154;5.430;2023-04-28T05:47:06;101176.97;;;9.46;68.52
70900;BME280;67902;52.154;5.430;2023-04-28T05:49:32;101170.81;;;9.39;68.15
70900;BME280;67902;52.154;5.430;2023-04-28T05:51:59;101164.06;;;9.29;69.74
70900;BME280;67902;52.154;5.430;2023-04-28T05:54:25;101167.84;;;9.28;69.79
70900;BME280;67902;52.154;5.430;2023-04-28T05:56:52;101162.25;;;9.23;71.18
70900;BME280;67902;52.154;5.430;2023-04-28T05:59:18;101157.34;;;9.20;72.43
70900;BME280;67902;52.154;5.430;2023-04-28T06:01:45;101169.78;;;9.21;73.77
70900;BME280;67902;52.154;5.430;2023-04-28T06:04:11;101171.66;;;9.21;75.97
70900;BME280;67902;52.154;5.430;2023-04-28T06:06:38;101171.81;;;9.26;76.42
70900;BME280;67902;52.154;5.430;2023-04-28T06:09:04;101170.03;;;9.20;74.20
70900;BME280;67902;52.154;5.430;2023-04-28T06:11:31;101171.97;;;9.13;74.66
70900;BME280;67902;52.154;5.430;2023-04-28T06:13:57;101163.66;;;9.14;74.18
70900;BME280;67902;52.154;5.430;2023-04-28T06:16:25;101154.47;;;9.15;76.49
70900;BME280;67902;52.154;5.430;2023-04-28T06:18:51;101146.75;;;9.19;75.89
70900;BME280;67902;52.154;5.430;2023-04-28T06:21:18;101145.38;;;9.28;76.62
70900;BME280;67902;52.154;5.430;2023-04-28T06:23:46;101132.38;;;9.37;74.73
70900;BME280;67902;52.154;5.430;2023-04-28T06:26:12;101138.31;;;9.45;74.21
70900;BME280;67902;52.154;5.430;2023-04-28T06:28:42;101132.78;;;9.52;74.75
70900;BME280;67902;52.154;5.430;2023-04-28T06:31:08;101128.56;;;9.56;73.86
70900;BME280;67902;52.154;5.430;2023-04-28T06:33:35;101130.50;;;9.67;73.80
70900;BME280;67902;52.154;5.430;2023-04-28T06:36:02;101124.53;;;9.88;73.13
70900;BME280;67902;52.154;5.430;2023-04-28T06:38:28;101119.38;;;9.98;72.43
70900;BME280;67902;52.154;5.430;2023-04-28T06:40:55;101126.56;;;10.04;71.63
70900;BME280;67902;52.154;5.430;2023-04-28T06:43:21;101119.03;;;10.06;71.54
70900;BME280;67902;52.154;5.430;2023-04-28T06:45:48;101138.50;;;10.15;73.18
70900;BME280;67902;52.154;5.430;2023-04-28T06:48:14;101128.50;;;10.15;72.47
70900;BME280;67902;52.154;5.430;2023-04-28T06:50:41;101128.84;;;10.30;73.84
70900;BME280;67902;52.154;5.430;2023-04-28T06:53:09;101132.03;;;10.51;73.97
70900;BME280;67902;52.154;5.430;2023-04-28T06:55:36;101126.72;;;10.67;72.44
70900;BME280;67902;52.154;5.430;2023-04-28T06:58:02;101128.25;;;10.75;71.95
70900;BME280;67902;52.154;5.430;2023-04-28T07:00:28;101115.06;;;10.67;72.11
70900;BME280;67902;52.154;5.430;2023-04-28T07:02:55;101119.78;;;10.71;73.47
70900;BME280;67902;52.154;5.430;2023-04-28T07:05:22;101119.16;;;10.81;74.42
70900;BME280;67902;52.154;5.430;2023-04-28T07:07:48;101104.19;;;10.90;74.82
70900;BME280;67902;52.154;5.430;2023-04-28T07:10:14;101099.31;;;11.03;75.26
70900;BME280;67902;52.154;5.430;2023-04-28T07:12:41;101109.88;;;11.17;74.47
70900;BME280;67902;52.154;5.430;2023-04-28T07:15:08;101116.94;;;11.18;74.64
70900;BME280;67902;52.154;5.430;2023-04-28T07:17:36;101117.53;;;11.20;75.05
70900;BME280;67902;52.154;5.430;2023-04-28T07:20:03;101117.28;;;11.21;76.42
70900;BME280;67902;52.154;5.430;2023-04-28T07:22:30;101124.44;;;11.27;76.08
70900;BME280;67902;52.154;5.430;2023-04-28T07:24:56;101124.63;;;11.37;75.97
70900;BME280;67902;52.154;5.430;2023-04-28T07:27:23;101114.38;;;11.39;76.21
70900;BME280;67902;52.154;5.430;2023-04-28T07:29:49;101121.31;;;11.47;75.35
70900;BME280;67902;52.154;5.430;2023-04-28T07:32:15;101119.09;;;11.60;75.62
70900;BME280;67902;52.154;5.430;2023-04-28T07:34:42;101114.84;;;11.64;76.56
70900;BME280;67902;52.154;5.430;2023-04-28T07:37:09;101114.97;;;11.70;76.75
70900;BME280;67902;52.154;5.430;2023-04-28T07:39:37;101120.47;;;11.75;76.44
70900;BME280;67902;52.154;5.430;2023-04-28T07:42:05;101113.16;;;11.75;78.11
70900;BME280;67902;52.154;5.430;2023-04-28T07:44:31;101123.31;;;11.68;76.60
70900;BME280;67902;52.154;5.430;2023-04-28T07:46:59;101107.28;;;11.67;76.17
70900;BME280;67902;52.154;5.430;2023-04-28T07:49:26;101107.69;;;11.87;75.75
70900;BME280;67902;52.154;5.430;2023-04-28T07:51:53;101093.91;;;12.10;76.29
70900;BME280;67902;52.154;5.430;2023-04-28T07:54:21;101097.72;;;12.26;75.66
70900;BME280;67902;52.154;5.430;2023-04-28T07:56:47;101090.28;;;12.38;74.23
70900;BME280;67902;52.154;5.430;2023-04-28T07:59:14;101097.81;;;12.52;74.88
70900;BME280;67902;52.154;5.430;2023-04-28T08:01:40;101095.44;;;12.56;75.63
70900;BME280;67902;52.154;5.430;2023-04-28T08:04:08;101090.81;;;12.56;74.91
70900;BME280;67902;52.154;5.430;2023-04-28T08:06:35;101098.13;;;12.56;75.17
70900;BME280;67902;52.154;5.430;2023-04-28T08:09:01;101093.72;;;12.50;75.56
70900;BME280;67902;52.154;5.430;2023-04-28T08:11:29;101086.31;;;12.45;76.14
70900;BME280;67902;52.154;5.430;2023-04-28T08:13:55;101085.66;;;12.38;76.61
70900;BME280;67902;52.154;5.430;2023-04-28T08:16:26;101086.97;;;12.36;75.83
70900;BME280;67902;52.154;5.430;2023-04-28T08:18:53;101084.53;;;12.34;76.61
70900;BME280;67902;52.154;5.430;2023-04-28T08:21:20;101088.38;;;12.38;76.23
70900;BME280;67902;52.154;5.430;2023-04-28T08:23:46;101101.66;;;12.35;77.49
70900;BME280;67902;52.154;5.430;2023-04-28T08:26:13;101103.78;;;12.16;78.49
70900;BME280;67902;52.154;5.430;2023-04-28T08:28:39;101099.19;;;12.00;78.79
70900;BME280;67902;52.154;5.430;2023-04-28T08:31:05;101107.97;;;11.90;79.68
70900;BME280;67902;52.154;5.430;2023-04-28T08:33:32;101105.28;;;11.90;79.95
70900;BME280;67902;52.154;5.430;2023-04-28T08:35:59;101108.50;;;11.87;80.50
70900;BME280;67902;52.154;5.430;2023-04-28T08:38:25;101101.09;;;11.83;80.78
70900;BME280;67902;52.154;5.430;2023-04-28T08:40:52;101104.78;;;11.77;81.74
70900;BME280;67902;52.154;5.430;2023-04-28T08:43:18;101097.78;;;11.81;81.36
70900;BME280;67902;52.154;5.430;2023-04-28T08:45:46;101094.75;;;11.94;81.69
70900;BME280;67902;52.154;5.430;2023-04-28T08:48:18;101091.88;;;12.17;81.92
70900;BME280;67902;52.154;5.430;2023-04-28T08:50:50;101092.59;;;12.29;80.85
70900;BME280;67902;52.154;5.430;2023-04-28T08:53:24;101097.69;;;12.42;81.14
70900;BME280;67902;52.154;5.430;2023-04-28T08:55:54;101095.75;;;12.59;80.50
70900;BME280;67902;52.154;5.430;2023-04-28T08:58:22;101093.38;;;12.63;79.70
70900;BME280;67902;52.154;5.430;2023-04-28T09:00:50;101095.25;;;12.62;79.04
70900;BME280;67902;52.154;5.430;2023-04-28T09:03:17;101088.72;;;12.63;80.10
70900;BME280;67902;52.154;5.430;2023-04-28T09:05:44;101092.84;;;12.66;80.20
70900;BME280;67902;52.154;5.430;2023-04-28T09:08:12;101086.22;;;12.57;80.84
70900;BME280;67902;52.154;5.430;2023-04-28T09:10:38;101084.81;;;12.54;81.02
70900;BME280;67902;52.154;5.430;2023-04-28T09:13:05;101082.09;;;12.54;81.65
70900;BME280;67902;52.154;5.430;2023-04-28T09:15:33;101078.56;;;12.54;81.51
70900;BME280;67902;52.154;5.430;2023-04-28T09:18:01;101076.41;;;12.56;81.89
70900;BME280;67902;52.154;5.430;2023-04-28T09:20:30;101075.03;;;12.53;81.60
70900;BME280;67902;52.154;5.430;2023-04-28T09:23:17;101076.00;;;12.47;82.04
70900;BME280;67902;52.154;5.430;2023-04-28T09:26:05;101072.81;;;12.50;82.47
70900;BME280;67902;52.154;5.430;2023-04-28T09:28:34;101064.41;;;12.52;83.38
70900;BME280;67902;52.154;5.430;2023-04-28T09:31:01;101081.72;;;12.46;83.66
70900;BME280;67902;52.154;5.430;2023-04-28T09:33:27;101084.66;;;12.44;84.36
70900;BME280;67902;52.154;5.430;2023-04-28T09:35:54;101078.09;;;12.40;84.55
70900;BME280;67902;52.154;5.430;2023-04-28T09:38:22;101086.41;;;12.34;85.05
70900;BME280;67902;52.154;5.430;2023-04-28T09:40:59;101083.38;;;12.30;85.52
70900;BME280;67902;52.154;5.430;2023-04-28T09:43:33;101074.78;;;12.38;85.55
70900;BME280;67902;52.154;5.430;2023-04-28T09:46:02;101071.81;;;12.56;85.58
70900;BME280;67902;52.154;5.430;2023-04-28T09:48:33;101071.44;;;12.69;85.59
70900;BME280;67902;52.154;5.430;2023-04-28T09:51:02;101063.28;;;12.69;85.73
70900;BME280;67902;52.154;5.430;2023-04-28T09:53:29;101061.88;;;12.67;86.26
70900;BME280;67902;52.154;5.430;2023-04-28T09:55:58;101056.88;;;12.80;86.67
70900;BME280;67902;52.154;5.430;2023-04-28T09:58:26;101066.25;;;12.90;86.62
70900;BME280;67902;52.154;5.430;2023-04-28T10:00:57;101064.59;;;12.89;86.64
70900;BME280;67902;52.154;5.430;2023-04-28T10:03:25;101061.44;;;12.97;87.35
70900;BME280;67902;52.154;5.430;2023-04-28T10:05:56;101057.91;;;12.96;87.17
70900;BME280;67902;52.154;5.430;2023-04-28T10:08:25;101056.00;;;12.97;87.50
70900;BME280;67902;52.154;5.430;2023-04-28T10:10:52;101060.91;;;13.00;86.95
70900;BME280;67902;52.154;5.430;2023-04-28T10:13:20;101062.56;;;13.01;86.55
70900;BME280;67902;52.154;5.430;2023-04-28T10:15:48;101057.91;;;12.96;87.00
70900;BME280;67902;52.154;5.430;2023-04-28T10:18:15;101058.66;;;12.92;87.61
70900;BME280;67902;52.154;5.430;2023-04-28T10:20:45;101058.28;;;12.83;88.15
70900;BME280;67902;52.154;5.430;2023-04-28T10:26:08;101055.38;;;12.90;88.71
70900;BME280;67902;52.154;5.430;2023-04-28T10:28:36;101060.81;;;12.90;88.45
70900;BME280;67902;52.154;5.430;2023-04-28T10:31:19;101061.25;;;12.82;89.17
70900;BME280;67902;52.154;5.430;2023-04-28T10:33:48;101054.75;;;12.83;89.52
70900;BME280;67902;52.154;5.430;2023-04-28T10:36:47;101055.69;;;12.93;89.59
70900;BME280;67902;52.154;5.430;2023-04-28T10:39:18;101059.63;;;13.02;89.47
70900;BME280;67902;52.154;5.430;2023-04-28T10:41:46;101063.63;;;13.00;89.62
70900;BME280;67902;52.154;5.430;2023-04-28T10:44:40;101059.63;;;13.02;89.37
70900;BME280;67902;52.154;5.430;2023-04-28T10:47:07;101060.81;;;13.11;89.63
70900;BME280;67902;52.154;5.430;2023-04-28T10:55:25;101062.88;;;13.26;88.77
70900;BME280;67902;52.154;5.430;2023-04-28T11:00:43;101069.31;;;13.42;89.60
70900;BME280;67902;52.154;5.430;2023-04-28T11:08:44;101055.31;;;13.60;88.06
70900;BME280;67902;52.154;5.430;2023-04-28T11:13:38;101062.59;;;13.81;88.35
70900;BME280;67902;52.154;5.430;2023-04-28T11:16:08;101059.06;;;13.80;88.07
70900;BME280;67902;52.154;5.430;2023-04-28T11:18:47;101056.66;;;13.89;87.99
70900;BME280;67902;52.154;5.430;2023-04-28T11:21:21;101054.22;;;13.92;88.26
70900;BME280;67902;52.154;5.430;2023-04-28T11:23:49;101051.47;;;13.87;87.72
70900;BME280;67902;52.154;5.430;2023-04-28T11:26:16;101054.97;;;13.83;88.28
70900;BME280;67902;52.154;5.430;2023-04-28T11:28:50;101057.22;;;13.91;89.84
70900;BME280;67902;52.154;5.430;2023-04-28T11:31:17;101049.94;;;14.02;87.45
70900;BME280;67902;52.154;5.430;2023-04-28T11:33:49;101051.03;;;14.01;88.24
70900;BME280;67902;52.154;5.430;2023-04-28T11:36:23;101046.19;;;14.08;88.22
70900;BME280;67902;52.154;5.430;2023-04-28T11:38:50;101043.91;;;14.31;87.76
70900;BME280;67902;52.154;5.430;2023-04-28T11:41:16;101040.41;;;14.41;87.12
70900;BME280;67902;52.154;5.430;2023-04-28T11:43:43;101043.16;;;14.41;86.12
70900;BME280;67902;52.154;5.430;2023-04-28T11:46:20;101043.66;;;14.33;85.99
70900;BME280;67902;52.154;5.430;2023-04-28T11:48:47;101042.19;;;14.20;86.10
70900;BME280;67902;52.154;5.430;2023-04-28T11:51:47;101040.78;;;14.18;85.91
70900;BME280;67902;52.154;5.430;2023-04-28T11:54:19;101048.91;;;14.08;85.39
70900;BME280;67902;52.154;5.430;2023-04-28T11:56:46;101047.75;;;13.99;86.27
70900;BME280;67902;52.154;5.430;2023-04-28T11:59:12;101054.00;;;13.99;86.26
70900;BME280;67902;52.154;5.430;2023-04-28T12:01:50;101050.28;;;14.10;85.78
70900;BME280;67902;52.154;5.430;2023-04-28T12:07:17;101043.78;;;14.16;86.50
70900;BME280;67902;52.154;5.430;2023-04-28T12:09:44;101055.38;;;14.33;87.12
70900;BME280;67902;52.154;5.430;2023-04-28T12:12:13;101051.38;;;14.51;86.01
70900;BME280;67902;52.154;5.430;2023-04-28T12:15:03;101046.28;;;14.65;86.66
70900;BME280;67902;52.154;5.430;2023-04-28T12:20:01;101049.31;;;14.73;86.50
70900;BME280;67902;52.154;5.430;2023-04-28T12:22:28;101054.78;;;14.83;84.84
70900;BME280;67902;52.154;5.430;2023-04-28T12:27:28;101059.91;;;14.70;85.91
70900;BME280;67902;52.154;5.430;2023-04-28T12:29:54;101053.88;;;14.63;84.15
70900;BME280;67902;52.154;5.430;2023-04-28T12:32:40;101057.19;;;14.65;84.83
70900;BME280;67902;52.154;5.430;2023-04-28T12:35:08;101053.09;;;14.62;85.46
70900;BME280;67902;52.154;5.430;2023-04-28T12:37:35;101062.84;;;14.58;85.26
70900;BME280;67902;52.154;5.430;2023-04-28T12:40:04;101056.75;;;14.41;86.31
70900;BME280;67902;52.154;5.430;2023-04-28T12:42:31;101063.78;;;14.32;86.44
70900;BME280;67902;52.154;5.430;2023-04-28T12:44:58;101066.44;;;14.27;87.63
70900;BME280;67902;52.154;5.430;2023-04-28T12:47:24;101062.13;;;14.26;87.07
70900;BME280;67902;52.154;5.430;2023-04-28T12:49:51;101069.47;;;14.30;87.42
70900;BME280;67902;52.154;5.430;2023-04-28T12:52:19;101060.03;;;14.43;86.79
70900;BME280;67902;52.154;5.430;2023-04-28T12:54:46;101060.47;;;14.72;86.06
70900;BME280;67902;52.154;5.430;2023-04-28T12:57:13;101058.06;;;14.80;85.62
70900;BME280;67902;52.154;5.430;2023-04-28T12:59:40;101067.03;;;14.76;85.93
70900;BME280;67902;52.154;5.430;2023-04-28T13:02:07;101057.31;;;15.00;86.32
70900;BME280;67902;52.154;5.430;2023-04-28T13:04:33;101062.53;;;15.06;84.29
70900;BME280;67902;52.154;5.430;2023-04-28T13:07:00;101064.41;;;15.06;84.67
70900;BME280;67902;52.154;5.430;2023-04-28T13:09:27;101060.88;;;15.10;83.85
70900;BME280;67902;52.154;5.430;2023-04-28T13:11:54;101062.78;;;15.05;83.89
70900;BME280;67902;52.154;5.430;2023-04-28T13:14:21;101062.22;;;14.98;83.27
70900;BME280;67902;52.154;5.430;2023-04-28T13:16:47;101065.41;;;14.80;83.86
70900;BME280;67902;52.154;5.430;2023-04-28T13:19:14;101063.44;;;14.65;84.54
70900;BME280;67902;52.154;5.430;2023-04-28T13:21:40;101061.28;;;14.67;84.67
70900;BME280;67902;52.154;5.430;2023-04-28T13:24:08;101066.19;;;14.70;84.97
70900;BME280;67902;52.154;5.430;2023-04-28T13:26:35;101066.72;;;14.62;85.01